Kirs, Russia
Current Conditions -  °F | °C
As of 10:00 PM on Monday 20 Oct 2014 (Local Time) from UUYY Reporting Station
Clear Clear  
Wind Chill:   Ceiling: Unl
Heat Index: 12°   Visibility: 6mi
Dew Point:   Wind: 4mph
Humidity: 79%   Direction: 10°N
Pressure: 29.8"   Gusts: NA
Location:  59.33°N, 52.27°E
Report Text: UUYY 201800Z 01002MPS CAVOK M11/M14 Q1009 NOSIG 01CLRD61 RMK QFE748/0997
Loading
Personal Weather Stations






























Interactive Weather Map
Tropical Storm Tracking
New forecast layout! Learn more

10-Day Weather Forecast

Advertisements
Track Severe Weather on mobile